createdAt,value
2018-09-03T00:02:23.598Z,101587.81
2018-09-03T00:07:27.199Z,101588.36
2018-09-03T00:12:30.197Z,101586.37
2018-09-03T00:17:33.223Z,101588.12
2018-09-03T00:22:36.221Z,101584.25
2018-09-03T00:27:39.338Z,101582.07
2018-09-03T00:32:48.602Z,101579.14
2018-09-03T00:37:57.849Z,101572.38
2018-09-03T00:43:06.554Z,101567.97
2018-09-03T00:48:09.733Z,101560.19
2018-09-03T00:53:13.414Z,101559.67
2018-09-03T00:58:18.614Z,101559.39
2018-09-03T01:03:22.335Z,101556.33
2018-09-03T01:08:26.240Z,101553.13
2018-09-03T01:13:29.361Z,101544.16
2018-09-03T01:18:36.944Z,101546.47
2018-09-03T01:23:40.011Z,101538.70
2018-09-03T01:28:43.126Z,101537.54
2018-09-03T01:33:52.197Z,101533.65
2018-09-03T01:38:55.624Z,101528.42
2018-09-03T01:43:58.829Z,101533.49
2018-09-03T01:49:02.144Z,101534.72
2018-09-03T01:54:05.402Z,101537.65
2018-09-03T01:59:08.395Z,101537.38
2018-09-03T02:04:12.060Z,101537.84
2018-09-03T02:09:17.242Z,101542.03
2018-09-03T02:14:21.701Z,101545.55
2018-09-03T02:19:25.556Z,101545.14
2018-09-03T02:24:29.118Z,101545.44
2018-09-03T02:29:32.134Z,101544.41
2018-09-03T02:34:35.101Z,101549.80
2018-09-03T02:39:38.045Z,101542.31
2018-09-03T02:44:41.545Z,101526.25
2018-09-03T02:49:46.154Z,101534.02
2018-09-03T02:54:50.982Z,101526.38
2018-09-03T02:59:55.062Z,101530.72
2018-09-03T03:04:58.703Z,101521.20
2018-09-03T03:10:02.095Z,101518.28
2018-09-03T03:15:05.732Z,101510.67
2018-09-03T03:20:09.377Z,101497.75
2018-09-03T03:25:13.444Z,101483.54
2018-09-03T03:30:20.636Z,101477.75
2018-09-03T03:35:25.184Z,101477.14
2018-09-03T03:40:29.031Z,101477.33
2018-09-03T03:45:32.381Z,101484.91
2018-09-03T03:50:35.803Z,101487.95
2018-09-03T03:55:39.208Z,101483.50
2018-09-03T04:00:42.591Z,101486.06
2018-09-03T04:05:47.318Z,101483.23
2018-09-03T04:10:51.419Z,101482.06
2018-09-03T04:15:55.193Z,101466.78
2018-09-03T04:20:58.598Z,101459.55
2018-09-03T04:26:01.950Z,101455.78
2018-09-03T04:31:05.357Z,101457.31
2018-09-03T04:36:08.883Z,101457.02
2018-09-03T04:41:12.353Z,101461.55
2018-09-03T04:46:18.226Z,101457.95
2018-09-03T04:51:23.241Z,101455.58
2018-09-03T04:56:27.657Z,101463.61
2018-09-03T05:01:31.255Z,101458.79
2018-09-03T05:06:34.682Z,101458.95
2018-09-03T05:11:38.079Z,101449.66
2018-09-03T05:16:41.462Z,101457.06
2018-09-03T05:21:47.126Z,101462.92
2018-09-03T05:26:53.229Z,101471.08
2018-09-03T05:31:58.303Z,101479.14
2018-09-03T05:37:01.727Z,101471.27
2018-09-03T05:42:05.626Z,101468.98
2018-09-03T05:47:09.115Z,101467.22
2018-09-03T05:52:12.584Z,101463.38
2018-09-03T05:57:21.858Z,101468.14
2018-09-03T06:02:26.754Z,101464.74
2018-09-03T06:07:32.192Z,101456.11
2018-09-03T06:12:35.832Z,101456.03
2018-09-03T06:17:39.096Z,101450.66
2018-09-03T06:22:42.435Z,101447.30
2018-09-03T06:27:45.822Z,101456.77
2018-09-03T06:32:49.252Z,101459.43
2018-09-03T06:37:58.945Z,101462.94
2018-09-03T06:43:04.761Z,101460.30
2018-09-03T06:48:08.184Z,101450.91
2018-09-03T06:53:13.942Z,101437.93
2018-09-03T06:58:17.371Z,101435.47
2018-09-03T07:03:20.832Z,101433.55
2018-09-03T07:08:24.423Z,101431.99
2018-09-03T07:13:27.782Z,101435.65
2018-09-03T07:18:37.021Z,101437.43
2018-09-03T07:23:43.745Z,101428.33
2018-09-03T07:28:47.321Z,101423.75
2018-09-03T07:33:50.807Z,101425.73
2018-09-03T07:38:54.233Z,101423.75
2018-09-03T07:43:58.520Z,101425.92
2018-09-03T07:49:09.021Z,101416.48
2018-09-03T07:54:13.755Z,101416.48
2018-09-03T07:59:17.240Z,101407.17
2018-09-03T08:04:20.624Z,101412.64
2018-09-03T08:09:24.188Z,101408.95
2018-09-03T08:14:33.137Z,101403.75
2018-09-03T08:19:37.991Z,101388.90
2018-09-03T08:24:41.392Z,101390.71
2018-09-03T08:29:44.967Z,101383.95
2018-09-03T08:34:50.253Z,101384.90
2018-09-03T08:39:53.545Z,101396.48
2018-09-03T08:45:01.607Z,101394.50
2018-09-03T08:50:06.961Z,101386.27
2018-09-03T08:55:10.685Z,101380.70
2018-09-03T09:00:14.080Z,101380.81
2018-09-03T09:05:17.447Z,101385.54
2018-09-03T09:10:20.974Z,101372.42
2018-09-03T09:15:24.334Z,101371.89
2018-09-03T09:20:34.877Z,101382.97
2018-09-03T09:25:39.583Z,101359.52
2018-09-03T09:30:43.004Z,101351.57
2018-09-03T09:35:46.707Z,101355.58
2018-09-03T09:40:51.156Z,101350.14
2018-09-03T09:45:58.331Z,101353.13
2018-09-03T09:51:02.590Z,101353.13
2018-09-03T09:56:06.163Z,101353.91
2018-09-03T10:01:17.549Z,101352.52
2018-09-03T10:06:25.974Z,101345.95
2018-09-03T10:11:32.066Z,101339.41
2018-09-03T10:16:35.580Z,101327.39
2018-09-03T10:21:38.967Z,101318.27
2018-09-03T10:26:42.381Z,101332.66
2018-09-03T10:31:46.094Z,101322.89
2018-09-03T10:36:49.549Z,101319.34
2018-09-03T10:41:53.606Z,101322.92
2018-09-03T10:46:57.010Z,101319.50
2018-09-03T10:52:00.438Z,101311.21
2018-09-03T10:57:06.947Z,101309.66
2018-09-03T11:02:13.477Z,101316.54
2018-09-03T11:07:16.994Z,101319.33
2018-09-03T11:12:20.457Z,101315.30
2018-09-03T11:17:24.795Z,101315.53
2018-09-03T11:22:29.047Z,101318.44
2018-09-03T11:27:35.477Z,101312.56
2018-09-03T11:32:44.489Z,101302.43
2018-09-03T11:37:49.676Z,101303.08
2018-09-03T11:42:55.169Z,101295.18
2018-09-03T11:47:59.828Z,101297.78
2018-09-03T11:53:08.354Z,101285.33
2018-09-03T11:58:15.227Z,101280.02
2018-09-03T12:03:19.614Z,101285.19
2018-09-03T12:08:23.162Z,101268.05
2018-09-03T12:13:33.698Z,101258.58
2018-09-03T12:18:38.997Z,101258.98
2018-09-03T12:23:43.135Z,101248.78
2018-09-03T12:28:46.370Z,101250.97
2018-09-03T12:33:49.860Z,101243.10
2018-09-03T12:38:53.246Z,101241.93
2018-09-03T12:44:00.292Z,101236.95
2018-09-03T12:49:03.810Z,101220.99
2018-09-03T12:54:07.937Z,101213.90
2018-09-03T12:59:14.488Z,101215.02
2018-09-03T13:04:20.729Z,101216.48
2018-09-03T13:09:25.589Z,101208.77
2018-09-03T13:14:28.990Z,101202.41
2018-09-03T13:19:34.058Z,101205.41
2018-09-03T13:24:38.673Z,101199.77
2018-09-03T13:29:42.609Z,101195.66
2018-09-03T13:34:48.549Z,101190.42
2018-09-03T13:39:52.702Z,101189.61
2018-09-03T13:45:16.630Z,101171.43
2018-09-03T13:50:20.046Z,101171.98
2018-09-03T13:55:23.404Z,101158.16
2018-09-03T14:00:27.441Z,101159.67
2018-09-03T14:10:48.454Z,101162.05
2018-09-03T14:15:53.015Z,101156.56
2018-09-03T14:20:59.672Z,101153.95
2018-09-03T14:26:05.246Z,101147.07
2018-09-03T14:31:10.648Z,101152.24
2018-09-03T14:36:14.058Z,101140.76
2018-09-03T14:41:17.590Z,101136.14
2018-09-03T14:46:20.972Z,101128.30
2018-09-03T14:51:27.276Z,101131.53
2018-09-03T14:56:31.729Z,101130.72
2018-09-03T15:01:35.801Z,101122.98
2018-09-03T15:06:40.110Z,101125.24
2018-09-03T15:11:43.467Z,101114.77
2018-09-03T15:16:46.931Z,101117.98
2018-09-03T15:21:50.333Z,101111.40
2018-09-03T15:26:55.908Z,101104.95
2018-09-03T15:32:02.532Z,101098.66
2018-09-03T15:37:06.455Z,101110.45
2018-09-03T15:42:11.566Z,101114.04
2018-09-03T15:47:15.019Z,101112.19
2018-09-03T15:52:18.843Z,101115.27
2018-09-03T15:57:22.381Z,101110.05
2018-09-03T16:02:27.647Z,101108.34
2018-09-03T16:07:32.674Z,101102.94
2018-09-03T16:12:37.114Z,101098.91
2018-09-03T16:17:41.882Z,101102.77
2018-09-03T16:22:45.301Z,101100.02
2018-09-03T16:27:50.516Z,101093.79
2018-09-03T16:32:58.073Z,101091.64
2018-09-03T16:38:01.696Z,101084.70
2018-09-03T16:43:07.329Z,101083.37
2018-09-03T16:48:12.003Z,101086.91
2018-09-03T16:53:15.524Z,101089.25
2018-09-03T16:58:18.909Z,101087.20
2018-09-03T17:03:27.806Z,101081.66
2018-09-03T17:08:33.054Z,101084.20
2018-09-03T17:13:37.091Z,101082.53
2018-09-03T17:18:40.406Z,101077.45
2018-09-03T17:23:43.813Z,101077.40
2018-09-03T17:28:47.227Z,101079.92
2018-09-03T17:33:50.627Z,101077.53
2018-09-03T17:38:58.805Z,101085.55
2018-09-03T17:44:03.651Z,101089.41
2018-09-03T17:49:07.295Z,101092.66
2018-09-03T17:54:10.730Z,101098.52
2018-09-03T17:59:15.573Z,101102.84
2018-09-03T18:04:20.182Z,101112.42
2018-09-03T18:09:29.279Z,101114.31
2018-09-03T18:14:34.977Z,101116.04
2018-09-03T18:19:39.679Z,101117.55
2018-09-03T18:24:44.763Z,101120.67
2018-09-03T18:29:49.448Z,101125.81
2018-09-03T18:34:56.886Z,101129.11
2018-09-03T18:40:01.010Z,101123.89
2018-09-03T18:45:06.225Z,101128.01
2018-09-03T18:50:12.544Z,101132.86
2018-09-03T18:55:16.431Z,101130.42
2018-09-03T19:00:20.595Z,101131.17
2018-09-03T19:05:26.245Z,101134.50
2018-09-03T19:10:30.325Z,101138.13
2018-09-03T19:15:34.366Z,101133.01
2018-09-03T19:20:38.718Z,101135.41
2018-09-03T19:25:42.608Z,101138.94
2018-09-03T19:30:46.601Z,101137.09
2018-09-03T19:35:49.996Z,101144.22
2018-09-03T19:40:58.888Z,101144.16
2018-09-03T19:46:03.596Z,101148.81
2018-09-03T19:51:07.976Z,101149.81
2018-09-03T19:56:12.467Z,101154.56
2018-09-03T20:01:16.121Z,101149.91
2018-09-03T20:06:19.644Z,101154.56
2018-09-03T20:11:23.071Z,101154.70
2018-09-03T20:16:28.192Z,101155.81
2018-09-03T20:21:36.805Z,101162.24
2018-09-03T20:26:40.834Z,101155.50
2018-09-03T20:31:44.325Z,101072.14
2018-09-03T20:36:47.754Z,101162.50
2018-09-03T20:41:51.204Z,101163.64
2018-09-03T20:46:55.017Z,101152.59
2018-09-03T20:52:01.074Z,101164.59
2018-09-03T20:57:05.787Z,101160.55
2018-09-03T21:02:09.965Z,101165.59
2018-09-03T21:07:13.807Z,101168.55
2018-09-03T21:12:17.238Z,101175.11
2018-09-03T21:17:20.613Z,101171.26
2018-09-03T21:22:24.003Z,101174.07
2018-09-03T21:27:30.200Z,101178.41
2018-09-03T21:32:35.408Z,101176.01
2018-09-03T21:37:40.684Z,101177.72
2018-09-03T21:42:44.185Z,101178.70
2018-09-03T21:47:47.648Z,101172.50
2018-09-03T21:52:51.074Z,101185.72
2018-09-03T21:57:54.550Z,101183.84
2018-09-03T22:03:01.555Z,101179.84
2018-09-03T22:08:08.233Z,101183.48
2018-09-03T22:13:12.023Z,101184.38
2018-09-03T22:18:15.533Z,101186.09
2018-09-03T22:23:18.982Z,101183.78
2018-09-03T22:28:22.424Z,101191.91
2018-09-03T22:33:25.793Z,101192.41
2018-09-03T22:38:32.462Z,101197.33
2018-09-03T22:43:36.966Z,101197.30
2018-09-03T22:48:40.893Z,101206.14
2018-09-03T22:53:44.338Z,101202.84
2018-09-03T22:58:47.750Z,101206.92
2018-09-03T23:03:51.142Z,101210.23
2018-09-03T23:08:54.575Z,101200.75
2018-09-03T23:13:59.103Z,101198.05
2018-09-03T23:19:04.820Z,101191.66
2018-09-03T23:24:09.709Z,101192.41
2018-09-03T23:29:13.171Z,101191.63
2018-09-03T23:34:16.597Z,101193.70
2018-09-03T23:39:19.990Z,101188.05
2018-09-03T23:44:23.757Z,101188.16
2018-09-03T23:49:29.245Z,101183.45
2018-09-03T23:54:35.533Z,101188.55
2018-09-03T23:59:40.107Z,101182.72
